PWSweather.com
Personal Weather Stations
Station Observations
WAIROAHB
Wairoa, Northern Hawkes Bay -NZ 4108

WairoaNorthern Hawkes Bay -NZ 4108

Lat: -39.04516934, Lon: 177.4263989

Elevation: 156

Station Type: WS3083

http://wairoa.net/weather/index.htm

Latest ConditionsUpdated 9:10:01 PM GMT+12:12 Thursday, Dec 12, 2019
Currently Today's Max Today's Min Today's Average
Temperature 62.1°F16.7°C 63.1°F17.3°C 58.1°F14.5°C 60.6°F15.9°C
Dew Point 59.7°F15.4°C 62.0°F16.7°C 57.8°F14.3°C 59.6°F15.3°C
Winds 0.7 mph SW1.1 kmh SW 15.2 mph -24.5 kmh - - 5.2 mph 8.4 kmh
Wind Gusts 3.1 mph5.0 kmh 19.7 mph31.7 kmh - -
Humidity 92% 99% 87% 97%
Pressure 30.03 in1016.9 mb 30.18 in1022.0 mb 29.99 in1015.6 mb -
Precipitation - 1.62 in41.1 mm - -
Hour Temp Dew Point Humidity Winds Wind Gusts Pressure Precip Precip Rate Daily Precip Total
09:10 PM 62.1°F16.7°C 59.7°F15.4°C 92% 0.7 mph SW1.1 kmh SW 3.1 mph5.0 kmh 30.03 in1016.9 mb 0.00 in0.0 mm 0.00 in0.0 mm 1.62 in41.1 mm
09:00 PM 62.1°F16.7°C 59.7°F15.4°C 92% 2.2 mph SW3.5 kmh SW 3.8 mph6.1 kmh 30.02 in1016.6 mb 0.00 in0.0 mm 0.00 in0.0 mm 1.62 in41.1 mm
08:50 PM 62.1°F16.7°C 59.7°F15.4°C 92% 2.2 mph SW3.5 kmh SW 3.1 mph5.0 kmh 30.02 in1016.6 mb 0.00 in0.0 mm 0.00 in0.0 mm 1.62 in41.1 mm
08:40 PM 62.2°F16.8°C 59.6°F15.3°C 91% 1.6 mph SW2.6 kmh SW 3.1 mph5.0 kmh 30.01 in1016.3 mb 0.00 in0.0 mm 0.00 in0.0 mm 1.62 in41.1 mm
08:30 PM 62.2°F16.8°C 59.6°F15.3°C 91% 1.6 mph SW2.6 kmh SW 3.1 mph5.0 kmh 30.00 in1015.9 mb 0.00 in0.0 mm 0.00 in0.0 mm 1.62 in41.1 mm
08:20 PM 62.2°F16.8°C 59.6°F15.3°C 91% 0.7 mph SW1.1 kmh SW 2.2 mph3.5 kmh 29.99 in1015.6 mb 0.00 in0.0 mm 0.00 in0.0 mm 1.62 in41.1 mm
08:10 PM 62.4°F16.9°C 59.5°F15.3°C 90% Calm Calm 3.1 mph5.0 kmh 29.99 in1015.6 mb 0.00 in0.0 mm 0.00 in0.0 mm 1.62 in41.1 mm
08:00 PM 62.6°F17.0°C 59.6°F15.3°C 90% 0.7 mph SW1.1 kmh SW 3.1 mph5.0 kmh 29.99 in1015.6 mb 0.00 in0.0 mm 0.00 in0.0 mm 1.62 in41.1 mm
07:50 PM 62.8°F17.1°C 59.8°F15.4°C 90% 2.2 mph SSW3.5 kmh SSW 4.5 mph7.2 kmh 30.00 in1015.9 mb 0.00 in0.0 mm 0.00 in0.0 mm 1.62 in41.1 mm
07:40 PM 62.6°F17.0°C 59.6°F15.3°C 90% 3.1 mph SSW5.0 kmh SSW 3.8 mph6.1 kmh 30.01 in1016.3 mb 0.00 in0.0 mm 0.00 in0.0 mm 1.62 in41.1 mm
07:30 PM 62.8°F17.1°C 59.8°F15.4°C 90% 1.6 mph SSW2.6 kmh SSW 3.1 mph5.0 kmh 30.01 in1016.3 mb 0.00 in0.0 mm 0.00 in0.0 mm 1.62 in41.1 mm
07:20 PM 62.8°F17.1°C 59.5°F15.3°C 89% 2.2 mph SSW3.5 kmh SSW 6.0 mph9.7 kmh 30.02 in1016.6 mb 0.00 in0.0 mm 0.00 in0.0 mm 1.62 in41.1 mm
07:10 PM 63.0°F17.2°C 59.7°F15.4°C 89% 2.2 mph SSW3.5 kmh SSW 4.5 mph7.2 kmh 30.03 in1016.9 mb 0.00 in0.0 mm 0.00 in0.0 mm 1.62 in41.1 mm
07:00 PM 63.0°F17.2°C 59.4°F15.2°C 88% 3.8 mph SW6.1 kmh SW 6.9 mph11.1 kmh 30.06 in1017.9 mb 0.00 in0.0 mm 0.00 in0.0 mm 1.62 in41.1 mm
06:50 PM 63.1°F17.3°C 59.5°F15.3°C 88% 3.1 mph S5.0 kmh S 6.0 mph9.7 kmh 30.09 in1019.0 mb 0.00 in0.0 mm 0.00 in0.0 mm 1.62 in41.1 mm
06:40 PM 63.0°F17.2°C 59.4°F15.2°C 88% 3.1 mph S5.0 kmh S 6.0 mph9.7 kmh 30.09 in1019.0 mb 0.00 in0.0 mm 0.00 in0.0 mm 1.62 in41.1 mm
06:30 PM 63.0°F17.2°C 59.4°F15.2°C 88% 4.5 mph S7.2 kmh S 6.9 mph11.1 kmh 30.09 in1019.0 mb 0.00 in0.0 mm 0.00 in0.0 mm 1.62 in41.1 mm
06:20 PM 63.0°F17.2°C 59.0°F15.0°C 87% 5.4 mph S8.7 kmh S 6.0 mph9.7 kmh 30.09 in1019.0 mb 0.00 in0.0 mm 0.00 in0.0 mm 1.62 in41.1 mm
06:10 PM 63.0°F17.2°C 59.4°F15.2°C 88% 3.8 mph S6.1 kmh S 6.0 mph9.7 kmh 30.09 in1019.0 mb 0.00 in0.0 mm 0.00 in0.0 mm 1.62 in41.1 mm
06:00 PM 63.0°F17.2°C 59.4°F15.2°C 88% 3.1 mph S5.0 kmh S 7.6 mph12.2 kmh 30.09 in1019.0 mb 0.00 in0.0 mm 0.00 in0.0 mm 1.62 in41.1 mm
05:50 PM 63.0°F17.2°C 59.7°F15.4°C 89% 3.8 mph S6.1 kmh S 8.3 mph13.4 kmh 30.08 in1018.6 mb 0.00 in0.0 mm 0.00 in0.0 mm 1.62 in41.1 mm
05:40 PM 63.0°F17.2°C 59.7°F15.4°C 89% 2.2 mph S3.5 kmh S 7.6 mph12.2 kmh 30.07 in1018.3 mb 0.00 in0.0 mm 0.00 in0.0 mm 1.62 in41.1 mm
05:30 PM 63.1°F17.3°C 59.9°F15.5°C 89% 3.1 mph S5.0 kmh S 8.3 mph13.4 kmh 30.06 in1017.9 mb 0.00 in0.0 mm 0.00 in0.0 mm 1.62 in41.1 mm
05:20 PM 63.1°F17.3°C 59.5°F15.3°C 88% 7.6 mph S12.2 kmh S 8.3 mph13.4 kmh 30.05 in1017.6 mb 0.00 in0.0 mm 0.00 in0.0 mm 1.62 in41.1 mm
05:10 PM 63.1°F17.3°C 59.5°F15.3°C 88% 4.5 mph S7.2 kmh S 9.2 mph14.8 kmh 30.04 in1017.3 mb 0.00 in0.0 mm 0.00 in0.0 mm 1.62 in41.1 mm
05:00 PM 63.1°F17.3°C 59.9°F15.5°C 89% 5.4 mph S8.7 kmh S 8.3 mph13.4 kmh 30.04 in1017.3 mb 0.00 in0.0 mm 0.00 in0.0 mm 1.62 in41.1 mm
04:50 PM 63.1°F17.3°C 60.5°F15.8°C 91% 6.0 mph SSW9.7 kmh SSW 9.2 mph14.8 kmh 30.04 in1017.3 mb 0.00 in0.0 mm 0.00 in0.0 mm 1.62 in41.1 mm
04:40 PM 62.8°F17.1°C 60.1°F15.6°C 91% 5.4 mph S8.7 kmh S 10.7 mph17.2 kmh 30.04 in1017.3 mb 0.00 in0.0 mm 0.00 in0.0 mm 1.62 in41.1 mm
04:30 PM 62.6°F17.0°C 60.0°F15.6°C 91% 5.4 mph S8.7 kmh S 10.7 mph17.2 kmh 30.04 in1017.3 mb 0.00 in0.0 mm 0.00 in0.0 mm 1.62 in41.1 mm
04:20 PM 62.6°F17.0°C 60.0°F15.6°C 91% 6.9 mph S11.1 kmh S 10.7 mph17.2 kmh 30.04 in1017.3 mb 0.00 in0.0 mm 0.00 in0.0 mm 1.62 in41.1 mm
04:10 PM 62.6°F17.0°C 60.3°F15.7°C 92% 7.6 mph SW12.2 kmh SW 9.8 mph15.8 kmh 30.04 in1017.3 mb 0.00 in0.0 mm 0.00 in0.0 mm 1.62 in41.1 mm
04:00 PM 62.6°F17.0°C 60.6°F15.9°C 93% 7.6 mph SW12.2 kmh SW 13.0 mph20.9 kmh 30.05 in1017.6 mb 0.00 in0.0 mm 0.00 in0.0 mm 1.62 in41.1 mm
03:50 PM 62.4°F16.9°C 60.4°F15.8°C 93% 7.6 mph S12.2 kmh S 9.8 mph15.8 kmh 30.04 in1017.3 mb 0.00 in0.0 mm 0.00 in0.0 mm 1.62 in41.1 mm
03:40 PM 62.4°F16.9°C 60.4°F15.8°C 93% 6.0 mph S9.7 kmh S 13.0 mph20.9 kmh 30.04 in1017.3 mb 0.00 in0.0 mm 0.00 in0.0 mm 1.62 in41.1 mm
03:30 PM 62.2°F16.8°C 60.8°F16.0°C 95% 6.9 mph SW11.1 kmh SW 12.1 mph19.5 kmh 30.03 in1016.9 mb 0.01 in0.3 mm 0.00 in0.0 mm 1.62 in41.1 mm
03:20 PM 62.1°F16.7°C 60.9°F16.1°C 96% 8.3 mph SW13.4 kmh SW 11.4 mph18.3 kmh 30.02 in1016.6 mb 0.02 in0.5 mm 0.00 in0.0 mm 1.62 in41.1 mm
03:10 PM 62.2°F16.8°C 61.7°F16.5°C 98% 7.6 mph SSW12.2 kmh SSW 12.1 mph19.5 kmh 30.02 in1016.6 mb 0.04 in1.0 mm 0.00 in0.0 mm 1.62 in41.1 mm
03:00 PM 62.2°F16.8°C 62.0°F16.7°C 99% 7.6 mph SSW12.2 kmh SSW 13.0 mph20.9 kmh 30.03 in1016.9 mb 0.04 in1.0 mm 0.00 in0.0 mm 1.62 in41.1 mm
02:50 PM 61.9°F16.6°C 61.6°F16.4°C 99% 9.8 mph SW15.8 kmh SW 12.1 mph19.5 kmh 30.04 in1017.3 mb 0.05 in1.3 mm 0.00 in0.0 mm 1.62 in41.1 mm
02:40 PM 61.7°F16.5°C 61.4°F16.3°C 99% 5.4 mph SW8.7 kmh SW 11.4 mph18.3 kmh 30.04 in1017.3 mb 0.05 in1.3 mm 0.00 in0.0 mm 1.62 in41.1 mm
02:30 PM 61.7°F16.5°C 61.4°F16.3°C 99% 9.8 mph SW15.8 kmh SW 13.0 mph20.9 kmh 30.05 in1017.6 mb 0.05 in1.3 mm 0.06 in1.5 mm 1.61 in40.9 mm
02:20 PM 61.5°F16.4°C 61.3°F16.3°C 99% 9.8 mph SW15.8 kmh SW 13.0 mph20.9 kmh 30.05 in1017.6 mb 0.04 in1.0 mm 0.00 in0.0 mm 1.59 in40.4 mm
02:10 PM 61.5°F16.4°C 61.3°F16.3°C 99% 9.2 mph SW14.8 kmh SW 14.5 mph23.3 kmh 30.06 in1017.9 mb 0.04 in1.0 mm 0.00 in0.0 mm 1.58 in40.1 mm
02:00 PM 61.3°F16.3°C 61.1°F16.2°C 99% 13.0 mph SW20.9 kmh SW 15.2 mph24.5 kmh 30.07 in1018.3 mb 0.04 in1.0 mm 0.00 in0.0 mm 1.58 in40.1 mm
01:50 PM 61.3°F16.3°C 61.1°F16.2°C 99% 10.7 mph SW17.2 kmh SW 18.3 mph29.5 kmh 30.07 in1018.3 mb 0.05 in1.3 mm 0.00 in0.0 mm 1.57 in39.9 mm
01:40 PM 61.7°F16.5°C 61.4°F16.3°C 99% 11.4 mph SW18.3 kmh SW 18.3 mph29.5 kmh 30.08 in1018.6 mb 0.05 in1.3 mm 0.00 in0.0 mm 1.57 in39.9 mm
01:30 PM 61.7°F16.5°C 61.4°F16.3°C 99% 11.4 mph SW18.3 kmh SW 18.3 mph29.5 kmh 30.07 in1018.3 mb 0.05 in1.3 mm 0.00 in0.0 mm 1.56 in39.6 mm
01:20 PM 61.7°F16.5°C 61.4°F16.3°C 99% 13.6 mph SW21.9 kmh SW 16.8 mph27.0 kmh 30.08 in1018.6 mb 0.07 in1.8 mm 0.00 in0.0 mm 1.56 in39.6 mm
01:10 PM 61.5°F16.4°C 61.3°F16.3°C 99% 12.1 mph SW19.5 kmh SW 15.9 mph25.6 kmh 30.09 in1019.0 mb 0.07 in1.8 mm 0.00 in0.0 mm 1.55 in39.4 mm
01:00 PM 61.7°F16.5°C 61.4°F16.3°C 99% 8.3 mph SSW13.4 kmh SSW 17.4 mph28.0 kmh 30.09 in1019.0 mb 0.09 in2.3 mm 0.00 in0.0 mm 1.55 in39.4 mm
12:50 PM 61.7°F16.5°C 61.4°F16.3°C 99% 6.9 mph SW11.1 kmh SW 16.8 mph27.0 kmh 30.09 in1019.0 mb 0.09 in2.3 mm 0.00 in0.0 mm 1.52 in38.6 mm
12:40 PM 61.7°F16.5°C 61.4°F16.3°C 99% 13.6 mph SW21.9 kmh SW 15.9 mph25.6 kmh 30.09 in1019.0 mb 0.14 in3.6 mm 0.00 in0.0 mm 1.52 in38.6 mm
12:30 PM 61.7°F16.5°C 61.4°F16.3°C 99% 9.8 mph SW15.8 kmh SW 14.5 mph23.3 kmh 30.10 in1019.3 mb 0.15 in3.8 mm 0.00 in0.0 mm 1.51 in38.4 mm
12:20 PM 61.7°F16.5°C 61.4°F16.3°C 99% 8.3 mph SW13.4 kmh SW 15.2 mph24.5 kmh 30.09 in1019.0 mb 0.15 in3.8 mm 0.00 in0.0 mm 1.49 in37.8 mm
12:10 PM 61.9°F16.6°C 61.6°F16.4°C 99% 6.0 mph SW9.7 kmh SW 15.2 mph24.5 kmh 30.09 in1019.0 mb 0.15 in3.8 mm 0.06 in1.5 mm 1.48 in37.6 mm
12:00 PM 61.5°F16.4°C 61.3°F16.3°C 99% 9.8 mph SW15.8 kmh SW 18.3 mph29.5 kmh 30.09 in1019.0 mb 0.14 in3.6 mm 0.01 in0.3 mm 1.45 in36.8 mm
11:50 AM 61.7°F16.5°C 61.4°F16.3°C 99% 10.7 mph SW17.2 kmh SW 15.2 mph24.5 kmh 30.10 in1019.3 mb 0.13 in3.3 mm 0.06 in1.5 mm 1.42 in36.1 mm
11:40 AM 61.7°F16.5°C 61.4°F16.3°C 99% 10.7 mph SW17.2 kmh SW 14.5 mph23.3 kmh 30.11 in1019.6 mb 0.12 in3.0 mm 0.06 in1.5 mm 1.38 in35.1 mm
11:30 AM 61.9°F16.6°C 61.6°F16.4°C 99% 9.2 mph SW14.8 kmh SW 14.5 mph23.3 kmh 30.09 in1019.0 mb 0.11 in2.8 mm 0.00 in0.0 mm 1.36 in34.5 mm
11:20 AM 61.9°F16.6°C 61.6°F16.4°C 99% 7.6 mph SW12.2 kmh SW 15.2 mph24.5 kmh 30.09 in1019.0 mb 0.11 in2.8 mm 0.00 in0.0 mm 1.33 in33.8 mm
11:10 AM 61.7°F16.5°C 61.4°F16.3°C 99% 13.0 mph SW20.9 kmh SW 16.8 mph27.0 kmh 30.09 in1019.0 mb 0.13 in3.3 mm 0.00 in0.0 mm 1.32 in33.5 mm
11:00 AM 61.5°F16.4°C 61.3°F16.3°C 99% 10.7 mph SW17.2 kmh SW 17.4 mph28.0 kmh 30.10 in1019.3 mb 0.14 in3.6 mm 0.00 in0.0 mm 1.31 in33.3 mm
10:50 AM 61.9°F16.6°C 61.6°F16.4°C 99% 6.0 mph SW9.7 kmh SW 15.2 mph24.5 kmh 30.11 in1019.6 mb 0.15 in3.8 mm 0.00 in0.0 mm 1.29 in32.8 mm
10:40 AM 61.7°F16.5°C 61.4°F16.3°C 99% 11.4 mph SW18.3 kmh SW 19.0 mph30.6 kmh 30.11 in1019.6 mb 0.17 in4.3 mm 0.00 in0.0 mm 1.26 in32.0 mm
10:30 AM 61.5°F16.4°C 61.3°F16.3°C 99% 15.2 mph SW24.5 kmh SW 17.4 mph28.0 kmh 30.12 in1020.0 mb 0.17 in4.3 mm 0.00 in0.0 mm 1.24 in31.5 mm
10:20 AM 61.5°F16.4°C 61.3°F16.3°C 99% 10.7 mph SW17.2 kmh SW 16.8 mph27.0 kmh 30.13 in1020.3 mb 0.18 in4.6 mm 0.06 in1.5 mm 1.23 in31.2 mm
10:10 AM 61.5°F16.4°C 61.3°F16.3°C 99% 9.8 mph SW15.8 kmh SW 15.2 mph24.5 kmh 30.13 in1020.3 mb 0.17 in4.3 mm 0.12 in3.0 mm 1.19 in30.2 mm
10:00 AM 61.5°F16.4°C 61.3°F16.3°C 99% 9.8 mph SW15.8 kmh SW 19.7 mph31.7 kmh 30.13 in1020.3 mb 0.15 in3.8 mm 0.01 in0.3 mm 1.17 in29.7 mm
09:50 AM 61.3°F16.3°C 61.1°F16.2°C 99% 8.3 mph SW13.4 kmh SW 15.2 mph24.5 kmh 30.14 in1020.7 mb 0.14 in3.6 mm 0.30 in7.6 mm 1.13 in28.7 mm
09:40 AM 61.2°F16.2°C 60.9°F16.1°C 99% 7.6 mph SW12.2 kmh SW 12.1 mph19.5 kmh 30.13 in1020.3 mb 0.09 in2.3 mm 0.00 in0.0 mm 1.09 in27.7 mm
09:30 AM 61.2°F16.2°C 60.9°F16.1°C 99% 6.0 mph SW9.7 kmh SW 13.0 mph20.9 kmh 30.13 in1020.3 mb 0.11 in2.8 mm 0.12 in3.0 mm 1.07 in27.2 mm
09:20 AM 61.0°F16.1°C 60.7°F15.9°C 99% 6.0 mph WSW9.7 kmh WSW 14.5 mph23.3 kmh 30.12 in1020.0 mb 0.09 in2.3 mm 0.00 in0.0 mm 1.05 in26.7 mm
09:10 AM 61.0°F16.1°C 60.7°F15.9°C 99% 12.1 mph SW19.5 kmh SW 14.5 mph23.3 kmh 30.12 in1020.0 mb 0.09 in2.3 mm 0.00 in0.0 mm 1.03 in26.2 mm
09:00 AM 61.0°F16.1°C 60.7°F15.9°C 99% 8.3 mph SW13.4 kmh SW 10.7 mph17.2 kmh 30.13 in1020.3 mb 0.11 in2.8 mm 0.02 in0.5 mm 1.02 in25.9 mm
08:50 AM 60.8°F16.0°C 60.5°F15.8°C 99% 4.5 mph WSW7.2 kmh WSW 6.9 mph11.1 kmh 30.15 in1021.0 mb 0.09 in2.3 mm 0.00 in0.0 mm 0.99 in25.1 mm
08:40 AM 60.6°F15.9°C 60.4°F15.8°C 99% 0.7 mph SW1.1 kmh SW 4.5 mph7.2 kmh 30.17 in1021.7 mb 0.11 in2.8 mm 0.12 in3.0 mm 0.99 in25.1 mm
08:30 AM 60.1°F15.6°C 59.8°F15.4°C 99% 2.2 mph NW3.5 kmh NW 4.5 mph7.2 kmh 30.17 in1021.7 mb 0.09 in2.3 mm 0.00 in0.0 mm 0.97 in24.6 mm
08:20 AM 59.9°F15.5°C 59.6°F15.3°C 99% 1.6 mph NW2.6 kmh NW 4.5 mph7.2 kmh 30.18 in1022.0 mb 0.09 in2.3 mm 0.06 in1.5 mm 0.96 in24.4 mm
08:10 AM 59.5°F15.3°C 59.3°F15.2°C 99% 1.6 mph WNW2.6 kmh WNW 4.5 mph7.2 kmh 30.18 in1022.0 mb 0.08 in2.0 mm 0.06 in1.5 mm 0.93 in23.6 mm
08:00 AM 59.4°F15.2°C 59.1°F15.1°C 99% 2.2 mph WNW3.5 kmh WNW 4.5 mph7.2 kmh 30.18 in1022.0 mb 0.07 in1.8 mm 0.00 in0.0 mm 0.91 in23.1 mm
07:50 AM 59.4°F15.2°C 59.1°F15.1°C 99% 1.6 mph NW2.6 kmh NW 3.8 mph6.1 kmh 30.18 in1022.0 mb 0.07 in1.8 mm 0.00 in0.0 mm 0.90 in22.9 mm
07:40 AM 59.2°F15.1°C 58.9°F14.9°C 99% 2.2 mph NW3.5 kmh NW 4.5 mph7.2 kmh 30.17 in1021.7 mb 0.07 in1.8 mm 0.00 in0.0 mm 0.89 in22.6 mm
07:30 AM 59.0°F15.0°C 58.7°F14.8°C 99% 2.2 mph WNW3.5 kmh WNW 6.0 mph9.7 kmh 30.17 in1021.7 mb 0.07 in1.8 mm 0.00 in0.0 mm 0.87 in22.1 mm
07:20 AM 59.0°F15.0°C 58.7°F14.8°C 99% 3.8 mph NW6.1 kmh NW 5.4 mph8.7 kmh 30.17 in1021.7 mb 0.07 in1.8 mm 0.00 in0.0 mm 0.86 in21.8 mm
07:10 AM 58.8°F14.9°C 58.6°F14.8°C 99% 4.5 mph NW7.2 kmh NW 7.6 mph12.2 kmh 30.17 in1021.7 mb 0.08 in2.0 mm 0.00 in0.0 mm 0.85 in21.6 mm
07:00 AM 58.6°F14.8°C 58.4°F14.7°C 99% 1.6 mph NW2.6 kmh NW 6.0 mph9.7 kmh 30.17 in1021.7 mb 0.08 in2.0 mm 0.00 in0.0 mm 0.84 in21.3 mm
06:50 AM 58.6°F14.8°C 58.4°F14.7°C 99% 3.8 mph NW6.1 kmh NW 6.0 mph9.7 kmh 30.17 in1021.7 mb 0.09 in2.3 mm 0.00 in0.0 mm 0.83 in21.1 mm
06:40 AM 58.5°F14.7°C 58.2°F14.6°C 99% 4.5 mph WNW7.2 kmh WNW 5.4 mph8.7 kmh 30.17 in1021.7 mb 0.11 in2.8 mm 0.00 in0.0 mm 0.81 in20.6 mm
06:30 AM 58.3°F14.6°C 58.0°F14.4°C 99% 3.8 mph NW6.1 kmh NW 5.4 mph8.7 kmh 30.17 in1021.7 mb 0.12 in3.0 mm 0.00 in0.0 mm 0.80 in20.3 mm
06:20 AM 58.3°F14.6°C 58.0°F14.4°C 99% 2.2 mph NW3.5 kmh NW 4.5 mph7.2 kmh 30.16 in1021.3 mb 0.12 in3.0 mm 0.00 in0.0 mm 0.79 in20.1 mm
06:10 AM 58.1°F14.5°C 57.8°F14.3°C 99% 3.8 mph NW6.1 kmh NW 6.0 mph9.7 kmh 30.16 in1021.3 mb 0.12 in3.0 mm 0.00 in0.0 mm 0.77 in19.6 mm
06:00 AM 58.1°F14.5°C 57.8°F14.3°C 99% 3.8 mph NW6.1 kmh NW 6.0 mph9.7 kmh 30.16 in1021.3 mb 0.15 in3.8 mm 0.00 in0.0 mm 0.76 in19.3 mm
05:50 AM 58.1°F14.5°C 57.8°F14.3°C 99% 3.8 mph NW6.1 kmh NW 5.4 mph8.7 kmh 30.16 in1021.3 mb 0.17 in4.3 mm 0.00 in0.0 mm 0.72 in18.3 mm
05:40 AM 58.1°F14.5°C 57.8°F14.3°C 99% 4.5 mph NW7.2 kmh NW 5.4 mph8.7 kmh 30.16 in1021.3 mb 0.18 in4.6 mm 0.00 in0.0 mm 0.71 in18.0 mm
05:30 AM 58.1°F14.5°C 57.8°F14.3°C 99% 1.6 mph NW2.6 kmh NW 4.5 mph7.2 kmh 30.16 in1021.3 mb 0.18 in4.6 mm 0.00 in0.0 mm 0.69 in17.5 mm
05:20 AM 58.1°F14.5°C 57.8°F14.3°C 99% 2.2 mph NW3.5 kmh NW 4.5 mph7.2 kmh 30.16 in1021.3 mb 0.18 in4.6 mm 0.06 in1.5 mm 0.67 in17.0 mm
05:10 AM 58.1°F14.5°C 57.8°F14.3°C 99% 3.1 mph NW5.0 kmh NW 4.5 mph7.2 kmh 30.16 in1021.3 mb 0.17 in4.3 mm 0.12 in3.0 mm 0.64 in16.3 mm
05:00 AM 58.1°F14.5°C 57.8°F14.3°C 99% 2.2 mph NW3.5 kmh NW 4.5 mph7.2 kmh 30.16 in1021.3 mb 0.15 in3.8 mm 0.02 in0.5 mm 0.60 in15.2 mm
04:50 AM 58.1°F14.5°C 57.8°F14.3°C 99% 3.8 mph NW6.1 kmh NW 4.5 mph7.2 kmh 30.15 in1021.0 mb 0.13 in3.3 mm 0.00 in0.0 mm 0.56 in14.2 mm
04:40 AM 58.1°F14.5°C 57.8°F14.3°C 99% 2.2 mph WNW3.5 kmh WNW 4.5 mph7.2 kmh 30.14 in1020.7 mb 0.13 in3.3 mm 0.00 in0.0 mm 0.53 in13.5 mm
04:30 AM 58.1°F14.5°C 57.8°F14.3°C 99% 3.1 mph NW5.0 kmh NW 5.4 mph8.7 kmh 30.14 in1020.7 mb 0.13 in3.3 mm 0.00 in0.0 mm 0.51 in13.0 mm
04:20 AM 58.1°F14.5°C 57.8°F14.3°C 99% 3.1 mph NW5.0 kmh NW 4.5 mph7.2 kmh 30.13 in1020.3 mb 0.13 in3.3 mm 0.00 in0.0 mm 0.48 in12.2 mm
04:10 AM 58.1°F14.5°C 57.8°F14.3°C 99% 3.1 mph NW5.0 kmh NW 4.5 mph7.2 kmh 30.13 in1020.3 mb 0.13 in3.3 mm 0.12 in3.0 mm 0.47 in11.9 mm
04:00 AM 58.1°F14.5°C 57.8°F14.3°C 99% 3.1 mph NW5.0 kmh NW 5.4 mph8.7 kmh 30.12 in1020.0 mb 0.11 in2.8 mm 0.00 in0.0 mm 0.45 in11.4 mm
03:50 AM 58.1°F14.5°C 57.8°F14.3°C 99% 4.5 mph NNW7.2 kmh NNW 5.4 mph8.7 kmh 30.11 in1019.6 mb 0.11 in2.8 mm 0.00 in0.0 mm 0.43 in10.9 mm
03:40 AM 58.3°F14.6°C 58.0°F14.4°C 99% 3.1 mph NNW5.0 kmh NNW 4.5 mph7.2 kmh 30.11 in1019.6 mb 0.11 in2.8 mm 0.00 in0.0 mm 0.40 in10.2 mm
03:30 AM 58.3°F14.6°C 58.0°F14.4°C 99% 3.1 mph NNW5.0 kmh NNW 4.5 mph7.2 kmh 30.10 in1019.3 mb 0.11 in2.8 mm 0.00 in0.0 mm 0.37 in9.4 mm
03:20 AM 58.3°F14.6°C 58.0°F14.4°C 99% 1.6 mph NNW2.6 kmh NNW 4.5 mph7.2 kmh 30.10 in1019.3 mb 0.12 in3.0 mm 0.00 in0.0 mm 0.35 in8.9 mm
03:10 AM 58.3°F14.6°C 58.0°F14.4°C 99% 3.1 mph NNW5.0 kmh NNW 4.5 mph7.2 kmh 30.09 in1019.0 mb 0.13 in3.3 mm 0.00 in0.0 mm 0.34 in8.6 mm
03:00 AM 58.3°F14.6°C 58.0°F14.4°C 99% 3.1 mph NNW5.0 kmh NNW 4.5 mph7.2 kmh 30.08 in1018.6 mb 0.14 in3.6 mm 0.01 in0.3 mm 0.34 in8.6 mm
02:50 AM 58.1°F14.5°C 57.8°F14.3°C 99% 2.2 mph NW3.5 kmh NW 3.8 mph6.1 kmh 30.08 in1018.6 mb 0.13 in3.3 mm 0.06 in1.5 mm 0.32 in8.1 mm
02:40 AM 58.1°F14.5°C 57.8°F14.3°C 99% 2.2 mph NNW3.5 kmh NNW 5.4 mph8.7 kmh 30.09 in1019.0 mb 0.12 in3.0 mm 0.06 in1.5 mm 0.30 in7.6 mm
02:30 AM 58.1°F14.5°C 57.8°F14.3°C 99% 0.7 mph NNW1.1 kmh NNW 3.8 mph6.1 kmh 30.08 in1018.6 mb 0.11 in2.8 mm 0.18 in4.6 mm 0.26 in6.6 mm
02:20 AM 58.1°F14.5°C 57.8°F14.3°C 99% 3.1 mph NW5.0 kmh NW 4.5 mph7.2 kmh 30.08 in1018.6 mb 0.08 in2.0 mm 0.00 in0.0 mm 0.22 in5.6 mm
02:10 AM 58.1°F14.5°C 57.8°F14.3°C 99% 2.2 mph NNW3.5 kmh NNW 5.4 mph8.7 kmh 30.07 in1018.3 mb 0.08 in2.0 mm 0.06 in1.5 mm 0.21 in5.3 mm
02:00 AM 58.1°F14.5°C 57.8°F14.3°C 99% 3.8 mph NW6.1 kmh NW 5.4 mph8.7 kmh 30.07 in1018.3 mb 0.07 in1.8 mm 0.00 in0.0 mm 0.20 in5.1 mm
01:50 AM 58.1°F14.5°C 57.8°F14.3°C 99% 2.2 mph NW3.5 kmh NW 6.0 mph9.7 kmh 30.08 in1018.6 mb 0.08 in2.0 mm 0.00 in0.0 mm 0.19 in4.8 mm
01:40 AM 58.3°F14.6°C 58.0°F14.4°C 99% 1.6 mph NW2.6 kmh NW 6.0 mph9.7 kmh 30.07 in1018.3 mb 0.08 in2.0 mm 0.06 in1.5 mm 0.18 in4.6 mm
01:30 AM 58.3°F14.6°C 58.0°F14.4°C 99% 4.5 mph NW7.2 kmh NW 6.0 mph9.7 kmh 30.07 in1018.3 mb 0.07 in1.8 mm 0.00 in0.0 mm 0.15 in3.8 mm
01:20 AM 58.3°F14.6°C 58.0°F14.4°C 99% 3.8 mph NW6.1 kmh NW 5.4 mph8.7 kmh 30.07 in1018.3 mb 0.07 in1.8 mm 0.00 in0.0 mm 0.14 in3.6 mm
01:10 AM 58.1°F14.5°C 57.8°F14.3°C 99% 3.8 mph NW6.1 kmh NW 6.0 mph9.7 kmh 30.07 in1018.3 mb 0.07 in1.8 mm 0.00 in0.0 mm 0.13 in3.3 mm
01:00 AM 58.3°F14.6°C 58.0°F14.4°C 99% 3.1 mph NW5.0 kmh NW 4.5 mph7.2 kmh 30.08 in1018.6 mb 0.08 in2.0 mm 0.01 in0.3 mm 0.13 in3.3 mm
12:50 AM 58.3°F14.6°C 58.0°F14.4°C 99% 2.2 mph NW3.5 kmh NW 3.8 mph6.1 kmh 30.08 in1018.6 mb 0.07 in1.8 mm 0.00 in0.0 mm 0.11 in2.8 mm
12:40 AM 58.3°F14.6°C 58.0°F14.4°C 99% 2.2 mph NW3.5 kmh NW 4.5 mph7.2 kmh 30.08 in1018.6 mb 0.07 in1.8 mm 0.00 in0.0 mm 0.09 in2.3 mm
12:30 AM 58.3°F14.6°C 58.0°F14.4°C 99% 2.2 mph NNW3.5 kmh NNW 4.5 mph7.2 kmh 30.08 in1018.6 mb 0.07 in1.8 mm 0.06 in1.5 mm 0.08 in2.0 mm
12:20 AM 58.3°F14.6°C 58.0°F14.4°C 99% 2.2 mph NW3.5 kmh NW 4.5 mph7.2 kmh 30.09 in1019.0 mb 0.06 in1.5 mm 0.06 in1.5 mm 0.07 in1.8 mm
12:10 AM 58.5°F14.7°C 58.2°F14.6°C 99% 3.1 mph NW5.0 kmh NW 5.4 mph8.7 kmh 30.09 in1019.0 mb 0.05 in1.3 mm 0.00 in0.0 mm 0.06 in1.5 mm
12:00 AM 58.5°F14.7°C 58.2°F14.6°C 99% 3.1 mph NNW5.0 kmh NNW 4.5 mph7.2 kmh 30.09 in1019.0 mb 0.05 in1.3 mm 0.00 in0.0 mm 0.05 in1.3 mm